PWSweather.com
Personal Weather Stations
Station Observations
IESRVJEREZ
Ies Fco. Romero Vargas, Jerez De La FronteraES 11408

Ies Fco. Romero VargasJerez De La FronteraES 11408

Lat: 36.67203, Lon: -6.129915

Elevation: 98

Station Type: FWS 20

http://www.iesromerovargas.net/estacion_meteorologica/Cumulus/web/

High Low Average
Temperature 67.3°F19.6°F 54.0°F12.2°F 60.5°F15.8°F
Dew Point 58.6°F14.8°F 49.6°F9.8°F 54.7°F12.6°F
Winds 9.8 mph WNW15.8 mph WNW Calm Calm 4.1 mph 6.6 mph
Wind Gusts 18.3 mph29.5 mph 0.7 mph1.1 mph 9.8 mph15.8 mph
Humidity 89% 71% 81%
Pressure 30.20 in1022.70 in 30.11 in1019.60 in -
Precipitation 0.00 in0.00 in - -
Hour Temp Dew Point Humidity Winds Wind Gusts Pressure Precip Precip Rate Daily Precip Total
12:00 AM 58.6°F14.8°C 51.5°F10.8°C 77% 5.4 mph SSE8.7 kmh SSE 13.0 mph20.9 kmh 30.19 in1022.4 mb 0.00 in0.0 mm 0.00 in0.0 mm 0.00 in0.0 mm
12:15 AM 58.6°F14.8°C 51.5°F10.8°C 77% 3.8 mph S6.1 kmh S 9.2 mph14.8 kmh 30.19 in1022.4 mb 0.00 in0.0 mm 0.00 in0.0 mm 0.00 in0.0 mm
12:30 AM 58.8°F14.9°C 51.6°F10.9°C 77% 4.5 mph SSE7.2 kmh SSE 10.7 mph17.2 kmh 30.20 in1022.7 mb 0.00 in0.0 mm 0.00 in0.0 mm 0.00 in0.0 mm
12:45 AM 58.6°F14.8°C 51.5°F10.8°C 77% 0.7 mph SE1.1 kmh SE 7.6 mph12.2 kmh 30.19 in1022.4 mb 0.00 in0.0 mm 0.00 in0.0 mm 0.00 in0.0 mm
01:00 AM 58.5°F14.7°C 51.3°F10.7°C 77% Calm Calm 6.9 mph11.1 kmh 30.20 in1022.7 mb 0.00 in0.0 mm 0.00 in0.0 mm 0.00 in0.0 mm
01:15 AM 57.9°F14.4°C 51.1°F10.6°C 78% 0.7 mph SSE1.1 kmh SSE 3.8 mph6.1 kmh 30.20 in1022.7 mb 0.00 in0.0 mm 0.00 in0.0 mm 0.00 in0.0 mm
01:30 AM 57.4°F14.1°C 50.9°F10.5°C 79% 2.2 mph SE3.5 kmh SE 4.5 mph7.2 kmh 30.19 in1022.4 mb 0.00 in0.0 mm 0.00 in0.0 mm 0.00 in0.0 mm
01:45 AM 57.4°F14.1°C 50.9°F10.5°C 79% 3.1 mph S5.0 kmh S 5.4 mph8.7 kmh 30.18 in1022.0 mb 0.00 in0.0 mm 0.00 in0.0 mm 0.00 in0.0 mm
02:00 AM 57.2°F14.0°C 50.8°F10.4°C 79% 2.2 mph SE3.5 kmh SE 6.0 mph9.7 kmh 30.18 in1022.0 mb 0.00 in0.0 mm 0.00 in0.0 mm 0.00 in0.0 mm
02:15 AM 57.0°F13.9°C 51.3°F10.7°C 81% 1.6 mph SE2.6 kmh SE 5.4 mph8.7 kmh 30.17 in1021.7 mb 0.00 in0.0 mm 0.00 in0.0 mm 0.00 in0.0 mm
02:30 AM 56.7°F13.7°C 51.2°F10.7°C 82% Calm Calm 3.8 mph6.1 kmh 30.17 in1021.7 mb 0.00 in0.0 mm 0.00 in0.0 mm 0.00 in0.0 mm
02:45 AM 56.1°F13.4°C 50.7°F10.4°C 82% Calm Calm 1.6 mph2.6 kmh 30.18 in1022.0 mb 0.00 in0.0 mm 0.00 in0.0 mm 0.00 in0.0 mm
03:00 AM 55.6°F13.1°C 50.5°F10.3°C 83% Calm Calm 1.6 mph2.6 kmh 30.18 in1022.0 mb 0.00 in0.0 mm 0.00 in0.0 mm 0.00 in0.0 mm
03:15 AM 55.4°F13.0°C 50.7°F10.4°C 84% Calm Calm 2.2 mph3.5 kmh 30.17 in1021.7 mb 0.00 in0.0 mm 0.00 in0.0 mm 0.00 in0.0 mm
03:30 AM 55.2°F12.9°C 50.8°F10.4°C 85% Calm Calm 2.2 mph3.5 kmh 30.16 in1021.3 mb 0.00 in0.0 mm 0.00 in0.0 mm 0.00 in0.0 mm
03:45 AM 55.0°F12.8°C 50.6°F10.3°C 85% Calm Calm 3.1 mph5.0 kmh 30.16 in1021.3 mb 0.00 in0.0 mm 0.00 in0.0 mm 0.00 in0.0 mm
04:00 AM 54.7°F12.6°C 50.3°F10.2°C 85% Calm Calm 3.1 mph5.0 kmh 30.16 in1021.3 mb 0.00 in0.0 mm 0.00 in0.0 mm 0.00 in0.0 mm
04:15 AM 54.0°F12.2°C 49.6°F9.8°C 85% Calm Calm 0.7 mph1.1 kmh 30.16 in1021.3 mb 0.00 in0.0 mm 0.00 in0.0 mm 0.00 in0.0 mm
04:30 AM 54.1°F12.3°C 50.7°F10.4°C 88% 0.7 mph ESE1.1 kmh ESE 3.8 mph6.1 kmh 30.16 in1021.3 mb 0.00 in0.0 mm 0.00 in0.0 mm 0.00 in0.0 mm
04:45 AM 54.5°F12.5°C 51.3°F10.7°C 89% Calm Calm 3.1 mph5.0 kmh 30.16 in1021.3 mb 0.00 in0.0 mm 0.00 in0.0 mm 0.00 in0.0 mm
05:00 AM 55.4°F13.0°C 51.9°F11.1°C 88% 3.8 mph SE6.1 kmh SE 5.4 mph8.7 kmh 30.16 in1021.3 mb 0.00 in0.0 mm 0.00 in0.0 mm 0.00 in0.0 mm
05:15 AM 56.1°F13.4°C 51.7°F10.9°C 85% 4.5 mph SE7.2 kmh SE 9.2 mph14.8 kmh 30.15 in1021.0 mb 0.00 in0.0 mm 0.00 in0.0 mm 0.00 in0.0 mm
05:30 AM 56.1°F13.4°C 51.7°F10.9°C 85% 2.2 mph SSE3.5 kmh SSE 9.8 mph15.8 kmh 30.15 in1021.0 mb 0.00 in0.0 mm 0.00 in0.0 mm 0.00 in0.0 mm
05:45 AM 56.3°F13.5°C 51.9°F11.1°C 85% 3.8 mph SE6.1 kmh SE 7.6 mph12.2 kmh 30.15 in1021.0 mb 0.00 in0.0 mm 0.00 in0.0 mm 0.00 in0.0 mm
06:00 AM 56.1°F13.4°C 51.7°F10.9°C 85% 3.1 mph SE5.0 kmh SE 9.2 mph14.8 kmh 30.15 in1021.0 mb 0.00 in0.0 mm 0.00 in0.0 mm 0.00 in0.0 mm
06:15 AM 55.8°F13.2°C 51.3°F10.7°C 85% 6.0 mph SSE9.7 kmh SSE 9.2 mph14.8 kmh 30.15 in1021.0 mb 0.00 in0.0 mm 0.00 in0.0 mm 0.00 in0.0 mm
06:30 AM 55.4°F13.0°C 51.0°F10.6°C 85% 5.4 mph SE8.7 kmh SE 10.7 mph17.2 kmh 30.15 in1021.0 mb 0.00 in0.0 mm 0.00 in0.0 mm 0.00 in0.0 mm
06:45 AM 55.4°F13.0°C 51.0°F10.6°C 85% 3.8 mph SE6.1 kmh SE 8.3 mph13.4 kmh 30.15 in1021.0 mb 0.00 in0.0 mm 0.00 in0.0 mm 0.00 in0.0 mm
07:00 AM 55.4°F13.0°C 51.3°F10.7°C 86% 3.8 mph SE6.1 kmh SE 8.3 mph13.4 kmh 30.15 in1021.0 mb 0.00 in0.0 mm 0.00 in0.0 mm 0.00 in0.0 mm
07:15 AM 55.6°F13.1°C 51.2°F10.7°C 85% 4.5 mph SSE7.2 kmh SSE 9.8 mph15.8 kmh 30.15 in1021.0 mb 0.00 in0.0 mm 0.00 in0.0 mm 0.00 in0.0 mm
07:30 AM 55.4°F13.0°C 51.0°F10.6°C 85% 8.3 mph SSE13.4 kmh SSE 11.4 mph18.3 kmh 30.15 in1021.0 mb 0.00 in0.0 mm 0.00 in0.0 mm 0.00 in0.0 mm
07:45 AM 55.8°F13.2°C 51.3°F10.7°C 85% 5.4 mph SSE8.7 kmh SSE 9.8 mph15.8 kmh 30.16 in1021.3 mb 0.00 in0.0 mm 0.00 in0.0 mm 0.00 in0.0 mm
08:00 AM 56.1°F13.4°C 51.7°F10.9°C 85% 7.6 mph SE12.2 kmh SE 11.4 mph18.3 kmh 30.15 in1021.0 mb 0.00 in0.0 mm 0.00 in0.0 mm 0.00 in0.0 mm
08:15 AM 55.9°F13.3°C 51.5°F10.8°C 85% 6.9 mph SSE11.1 kmh SSE 10.7 mph17.2 kmh 30.15 in1021.0 mb 0.00 in0.0 mm 0.00 in0.0 mm 0.00 in0.0 mm
08:30 AM 55.9°F13.3°C 51.8°F11.0°C 86% 6.0 mph SSE9.7 kmh SSE 8.3 mph13.4 kmh 30.15 in1021.0 mb 0.00 in0.0 mm 0.00 in0.0 mm 0.00 in0.0 mm
08:45 AM 55.8°F13.2°C 52.0°F11.1°C 87% 3.1 mph SSE5.0 kmh SSE 9.8 mph15.8 kmh 30.16 in1021.3 mb 0.00 in0.0 mm 0.00 in0.0 mm 0.00 in0.0 mm
09:00 AM 55.9°F13.3°C 52.4°F11.3°C 88% 2.2 mph SE3.5 kmh SE 8.3 mph13.4 kmh 30.17 in1021.7 mb 0.00 in0.0 mm 0.00 in0.0 mm 0.00 in0.0 mm
09:15 AM 56.3°F13.5°C 52.2°F11.2°C 86% 4.5 mph SSE7.2 kmh SSE 8.3 mph13.4 kmh 30.17 in1021.7 mb 0.00 in0.0 mm 0.00 in0.0 mm 0.00 in0.0 mm
09:30 AM 57.2°F14.0°C 52.4°F11.3°C 84% 6.0 mph SE9.7 kmh SE 11.4 mph18.3 kmh 30.17 in1021.7 mb 0.00 in0.0 mm 0.00 in0.0 mm 0.00 in0.0 mm
09:45 AM 57.9°F14.4°C 52.8°F11.6°C 83% 3.8 mph SE6.1 kmh SE 9.8 mph15.8 kmh 30.18 in1022.0 mb 0.00 in0.0 mm 0.00 in0.0 mm 0.00 in0.0 mm
10:00 AM 58.1°F14.5°C 52.6°F11.4°C 82% 5.4 mph SE8.7 kmh SE 9.2 mph14.8 kmh 30.18 in1022.0 mb 0.00 in0.0 mm 0.00 in0.0 mm 0.00 in0.0 mm
10:15 AM 59.0°F15.0°C 53.2°F11.8°C 81% 3.8 mph SSE6.1 kmh SSE 8.3 mph13.4 kmh 30.17 in1021.7 mb 0.00 in0.0 mm 0.00 in0.0 mm 0.00 in0.0 mm
10:30 AM 59.9°F15.5°C 53.7°F12.1°C 80% 5.4 mph SE8.7 kmh SE 9.2 mph14.8 kmh 30.18 in1022.0 mb 0.00 in0.0 mm 0.00 in0.0 mm 0.00 in0.0 mm
10:45 AM 61.3°F16.3°C 54.1°F12.3°C 77% 1.6 mph SSE2.6 kmh SSE 4.5 mph7.2 kmh 30.18 in1022.0 mb 0.00 in0.0 mm 0.00 in0.0 mm 0.00 in0.0 mm
11:00 AM 63.0°F17.2°C 54.9°F12.7°C 75% 3.8 mph S6.1 kmh S 13.0 mph20.9 kmh 30.18 in1022.0 mb 0.00 in0.0 mm 0.00 in0.0 mm 0.00 in0.0 mm
11:15 AM 65.1°F18.4°C 55.9°F13.3°C 72% 1.6 mph S2.6 kmh S 12.1 mph19.5 kmh 30.19 in1022.4 mb 0.00 in0.0 mm 0.00 in0.0 mm 0.00 in0.0 mm
11:30 AM 65.3°F18.5°C 55.7°F13.2°C 71% 8.3 mph WSW13.4 kmh WSW 11.4 mph18.3 kmh 30.20 in1022.7 mb 0.00 in0.0 mm 0.00 in0.0 mm 0.00 in0.0 mm
11:45 AM 65.5°F18.6°C 56.6°F13.7°C 73% 0.7 mph SW1.1 kmh SW 9.8 mph15.8 kmh 30.20 in1022.7 mb 0.00 in0.0 mm 0.00 in0.0 mm 0.00 in0.0 mm
12:00 PM 66.0°F18.9°C 56.8°F13.8°C 72% 3.8 mph SW6.1 kmh SW 8.3 mph13.4 kmh 30.20 in1022.7 mb 0.00 in0.0 mm 0.00 in0.0 mm 0.00 in0.0 mm
12:15 PM 66.4°F19.1°C 57.1°F13.9°C 72% 5.4 mph SW8.7 kmh SW 12.1 mph19.5 kmh 30.20 in1022.7 mb 0.00 in0.0 mm 0.00 in0.0 mm 0.00 in0.0 mm
12:30 PM 67.3°F19.6°C 58.0°F14.4°C 72% 3.8 mph WNW6.1 kmh WNW 13.0 mph20.9 kmh 30.19 in1022.4 mb 0.00 in0.0 mm 0.00 in0.0 mm 0.00 in0.0 mm
12:45 PM 66.6°F19.2°C 57.7°F14.3°C 73% 6.0 mph WSW9.7 kmh WSW 14.5 mph23.3 kmh 30.19 in1022.4 mb 0.00 in0.0 mm 0.00 in0.0 mm 0.00 in0.0 mm
01:00 PM 65.8°F18.8°C 57.7°F14.3°C 75% 6.9 mph WSW11.1 kmh WSW 16.8 mph27.0 kmh 30.19 in1022.4 mb 0.00 in0.0 mm 0.00 in0.0 mm 0.00 in0.0 mm
01:15 PM 65.1°F18.4°C 57.4°F14.1°C 76% 4.5 mph WNW7.2 kmh WNW 18.3 mph29.5 kmh 30.18 in1022.0 mb 0.00 in0.0 mm 0.00 in0.0 mm 0.00 in0.0 mm
01:30 PM 65.3°F18.5°C 57.9°F14.4°C 77% 4.5 mph W7.2 kmh W 15.2 mph24.5 kmh 30.18 in1022.0 mb 0.00 in0.0 mm 0.00 in0.0 mm 0.00 in0.0 mm
01:45 PM 65.7°F18.7°C 58.6°F14.8°C 78% 4.5 mph W7.2 kmh W 15.9 mph25.6 kmh 30.17 in1021.7 mb 0.00 in0.0 mm 0.00 in0.0 mm 0.00 in0.0 mm
02:00 PM 66.4°F19.1°C 58.2°F14.6°C 75% 6.9 mph W11.1 kmh W 15.2 mph24.5 kmh 30.17 in1021.7 mb 0.00 in0.0 mm 0.00 in0.0 mm 0.00 in0.0 mm
02:15 PM 66.0°F18.9°C 58.3°F14.6°C 76% 6.9 mph W11.1 kmh W 15.9 mph25.6 kmh 30.15 in1021.0 mb 0.00 in0.0 mm 0.00 in0.0 mm 0.00 in0.0 mm
02:30 PM 66.0°F18.9°C 58.3°F14.6°C 76% 8.3 mph W13.4 kmh W 17.4 mph28.0 kmh 30.14 in1020.7 mb 0.00 in0.0 mm 0.00 in0.0 mm 0.00 in0.0 mm
02:45 PM 67.1°F19.5°C 58.2°F14.6°C 73% 9.2 mph W14.8 kmh W 15.2 mph24.5 kmh 30.13 in1020.3 mb 0.00 in0.0 mm 0.00 in0.0 mm 0.00 in0.0 mm
03:00 PM 66.9°F19.4°C 58.0°F14.4°C 73% 7.6 mph WNW12.2 kmh WNW 14.5 mph23.3 kmh 30.13 in1020.3 mb 0.00 in0.0 mm 0.00 in0.0 mm 0.00 in0.0 mm
03:15 PM 66.9°F19.4°C 58.0°F14.4°C 73% 8.3 mph WNW13.4 kmh WNW 16.8 mph27.0 kmh 30.13 in1020.3 mb 0.00 in0.0 mm 0.00 in0.0 mm 0.00 in0.0 mm
03:30 PM 66.0°F18.9°C 58.6°F14.8°C 77% 9.8 mph WNW15.8 kmh WNW 16.8 mph27.0 kmh 30.13 in1020.3 mb 0.00 in0.0 mm 0.00 in0.0 mm 0.00 in0.0 mm
03:45 PM 65.1°F18.4°C 57.8°F14.3°C 77% 6.9 mph WNW11.1 kmh WNW 18.3 mph29.5 kmh 30.13 in1020.3 mb 0.00 in0.0 mm 0.00 in0.0 mm 0.00 in0.0 mm
04:00 PM 65.3°F18.5°C 57.6°F14.2°C 76% 7.6 mph W12.2 kmh W 15.2 mph24.5 kmh 30.14 in1020.7 mb 0.00 in0.0 mm 0.00 in0.0 mm 0.00 in0.0 mm
04:15 PM 65.5°F18.6°C 57.7°F14.3°C 76% 5.4 mph W8.7 kmh W 15.9 mph25.6 kmh 30.14 in1020.7 mb 0.00 in0.0 mm 0.00 in0.0 mm 0.00 in0.0 mm
04:30 PM 64.9°F18.3°C 57.9°F14.4°C 78% 7.6 mph WNW12.2 kmh WNW 15.2 mph24.5 kmh 30.14 in1020.7 mb 0.00 in0.0 mm 0.00 in0.0 mm 0.00 in0.0 mm
04:45 PM 64.8°F18.2°C 58.5°F14.7°C 80% 7.6 mph NW12.2 kmh NW 15.9 mph25.6 kmh 30.13 in1020.3 mb 0.00 in0.0 mm 0.00 in0.0 mm 0.00 in0.0 mm
05:00 PM 64.6°F18.1°C 57.9°F14.4°C 79% 9.8 mph WNW15.8 kmh WNW 13.6 mph21.9 kmh 30.13 in1020.3 mb 0.00 in0.0 mm 0.00 in0.0 mm 0.00 in0.0 mm
05:15 PM 64.4°F18.0°C 57.4°F14.1°C 78% 6.0 mph WNW9.7 kmh WNW 13.6 mph21.9 kmh 30.13 in1020.3 mb 0.00 in0.0 mm 0.00 in0.0 mm 0.00 in0.0 mm
05:30 PM 64.2°F17.9°C 57.9°F14.4°C 80% 5.4 mph W8.7 kmh W 13.0 mph20.9 kmh 30.13 in1020.3 mb 0.00 in0.0 mm 0.00 in0.0 mm 0.00 in0.0 mm
05:45 PM 64.6°F18.1°C 57.6°F14.2°C 78% 8.3 mph NW13.4 kmh NW 13.6 mph21.9 kmh 30.14 in1020.7 mb 0.00 in0.0 mm 0.00 in0.0 mm 0.00 in0.0 mm
06:00 PM 64.2°F17.9°C 57.2°F14.0°C 78% 3.1 mph WNW5.0 kmh WNW 13.6 mph21.9 kmh 30.12 in1020.0 mb 0.00 in0.0 mm 0.00 in0.0 mm 0.00 in0.0 mm
06:15 PM 63.9°F17.7°C 57.2°F14.0°C 79% 3.1 mph WNW5.0 kmh WNW 9.2 mph14.8 kmh 30.12 in1020.0 mb 0.00 in0.0 mm 0.00 in0.0 mm 0.00 in0.0 mm
06:30 PM 63.3°F17.4°C 56.7°F13.7°C 79% 3.1 mph NW5.0 kmh NW 9.8 mph15.8 kmh 30.11 in1019.6 mb 0.00 in0.0 mm 0.00 in0.0 mm 0.00 in0.0 mm
06:45 PM 62.4°F16.9°C 56.9°F13.8°C 82% 4.5 mph W7.2 kmh W 9.8 mph15.8 kmh 30.11 in1019.6 mb 0.00 in0.0 mm 0.00 in0.0 mm 0.00 in0.0 mm
07:00 PM 61.7°F16.5°C 57.2°F14.0°C 85% 3.8 mph W6.1 kmh W 9.2 mph14.8 kmh 30.12 in1020.0 mb 0.00 in0.0 mm 0.00 in0.0 mm 0.00 in0.0 mm
07:15 PM 61.3°F16.3°C 56.8°F13.8°C 85% 3.1 mph W5.0 kmh W 9.8 mph15.8 kmh 30.11 in1019.6 mb 0.00 in0.0 mm 0.00 in0.0 mm 0.00 in0.0 mm
07:30 PM 61.2°F16.2°C 57.0°F13.9°C 86% 3.8 mph WNW6.1 kmh WNW 9.2 mph14.8 kmh 30.11 in1019.6 mb 0.00 in0.0 mm 0.00 in0.0 mm 0.00 in0.0 mm
07:45 PM 61.2°F16.2°C 57.0°F13.9°C 86% 4.5 mph W7.2 kmh W 10.7 mph17.2 kmh 30.12 in1020.0 mb 0.00 in0.0 mm 0.00 in0.0 mm 0.00 in0.0 mm
08:00 PM 61.2°F16.2°C 56.6°F13.7°C 85% 3.1 mph W5.0 kmh W 9.2 mph14.8 kmh 30.12 in1020.0 mb 0.00 in0.0 mm 0.00 in0.0 mm 0.00 in0.0 mm
08:15 PM 61.2°F16.2°C 57.0°F13.9°C 86% 3.1 mph WSW5.0 kmh WSW 8.3 mph13.4 kmh 30.12 in1020.0 mb 0.00 in0.0 mm 0.00 in0.0 mm 0.00 in0.0 mm
08:30 PM 61.0°F16.1°C 57.1°F13.9°C 87% 6.0 mph W9.7 kmh W 10.7 mph17.2 kmh 30.12 in1020.0 mb 0.00 in0.0 mm 0.00 in0.0 mm 0.00 in0.0 mm
08:45 PM 61.0°F16.1°C 57.1°F13.9°C 87% 2.2 mph W3.5 kmh W 8.3 mph13.4 kmh 30.13 in1020.3 mb 0.00 in0.0 mm 0.00 in0.0 mm 0.00 in0.0 mm
09:00 PM 61.0°F16.1°C 57.4°F14.1°C 88% 2.2 mph W3.5 kmh W 7.6 mph12.2 kmh 30.14 in1020.7 mb 0.00 in0.0 mm 0.00 in0.0 mm 0.00 in0.0 mm
09:15 PM 61.0°F16.1°C 57.4°F14.1°C 88% 3.1 mph W5.0 kmh W 9.2 mph14.8 kmh 30.14 in1020.7 mb 0.00 in0.0 mm 0.00 in0.0 mm 0.00 in0.0 mm
09:30 PM 61.0°F16.1°C 57.1°F13.9°C 87% 3.1 mph WNW5.0 kmh WNW 6.9 mph11.1 kmh 30.14 in1020.7 mb 0.00 in0.0 mm 0.00 in0.0 mm 0.00 in0.0 mm
09:45 PM 61.3°F16.3°C 57.5°F14.2°C 87% 3.8 mph NW6.1 kmh NW 11.4 mph18.3 kmh 30.15 in1021.0 mb 0.00 in0.0 mm 0.00 in0.0 mm 0.00 in0.0 mm
10:00 PM 61.5°F16.4°C 57.0°F13.9°C 85% 3.8 mph NW6.1 kmh NW 12.1 mph19.5 kmh 30.15 in1021.0 mb 0.00 in0.0 mm 0.00 in0.0 mm 0.00 in0.0 mm
10:15 PM 61.5°F16.4°C 57.0°F13.9°C 85% 3.8 mph WNW6.1 kmh WNW 7.6 mph12.2 kmh 30.15 in1021.0 mb 0.00 in0.0 mm 0.00 in0.0 mm 0.00 in0.0 mm
10:30 PM 61.3°F16.3°C 57.1°F13.9°C 86% 1.6 mph WNW2.6 kmh WNW 8.3 mph13.4 kmh 30.15 in1021.0 mb 0.00 in0.0 mm 0.00 in0.0 mm 0.00 in0.0 mm
10:45 PM 61.2°F16.2°C 57.3°F14.1°C 87% 2.2 mph WNW3.5 kmh WNW 6.9 mph11.1 kmh 30.15 in1021.0 mb 0.00 in0.0 mm 0.00 in0.0 mm 0.00 in0.0 mm
11:00 PM 61.3°F16.3°C 57.5°F14.2°C 87% 2.2 mph W3.5 kmh W 8.3 mph13.4 kmh 30.15 in1021.0 mb 0.00 in0.0 mm 0.00 in0.0 mm 0.00 in0.0 mm
11:15 PM 61.3°F16.3°C 57.5°F14.2°C 87% 3.8 mph W6.1 kmh W 6.9 mph11.1 kmh 30.15 in1021.0 mb 0.00 in0.0 mm 0.00 in0.0 mm 0.00 in0.0 mm
11:30 PM 61.3°F16.3°C 57.1°F13.9°C 86% 5.4 mph W8.7 kmh W 9.2 mph14.8 kmh 30.16 in1021.3 mb 0.00 in0.0 mm 0.00 in0.0 mm 0.00 in0.0 mm
11:45 PM 61.2°F16.2°C 57.3°F14.1°C 87% 2.2 mph W3.5 kmh W 8.3 mph13.4 kmh 30.16 in1021.3 mb 0.00 in0.0 mm 0.00 in0.0 mm 0.00 in0.0 mm